createdAt,value
2018-09-01T00:00:09.720Z,93.12
2018-09-01T00:01:09.686Z,93.21
2018-09-01T00:02:09.669Z,93.16
2018-09-01T00:03:09.655Z,92.97
2018-09-01T00:04:09.636Z,93.16
2018-09-01T00:05:09.617Z,93.26
2018-09-01T00:06:09.610Z,93.16
2018-09-01T00:07:09.602Z,94.12
2018-09-01T00:08:09.573Z,93.55
2018-09-01T00:09:09.594Z,94.79
2018-09-01T00:10:09.534Z,94.60
2018-09-01T00:11:09.534Z,94.31
2018-09-01T00:12:09.532Z,94.79
2018-09-01T00:13:09.483Z,94.60
2018-09-01T00:14:09.468Z,94.21
2018-09-01T00:15:09.451Z,94.41
2018-09-01T00:16:09.446Z,94.21
2018-09-01T00:17:09.419Z,94.79
2018-09-01T00:18:09.402Z,95.07
2018-09-01T00:19:09.388Z,94.98
2018-09-01T00:20:09.369Z,95.07
2018-09-01T00:21:09.353Z,95.07
2018-09-01T00:22:09.336Z,95.56
2018-09-01T00:23:09.327Z,95.65
2018-09-01T00:24:09.301Z,95.56
2018-09-01T00:25:09.283Z,95.94
2018-09-01T00:26:09.266Z,95.70
2018-09-01T00:27:09.256Z,95.79
2018-09-01T00:28:09.231Z,95.89
2018-09-01T00:29:09.225Z,95.98
2018-09-01T00:30:09.203Z,95.98
2018-09-01T00:31:09.190Z,96.47
2018-09-01T00:32:09.171Z,96.18
2018-09-01T00:33:09.149Z,96.27
2018-09-01T00:34:09.133Z,96.18
2018-09-01T00:35:09.116Z,96.27
2018-09-01T00:36:09.195Z,96.56
2018-09-01T00:37:09.082Z,96.84
2018-09-01T00:38:09.064Z,97.33
2018-09-01T00:39:09.113Z,97.04
2018-09-01T00:40:09.030Z,97.61
2018-09-01T00:41:09.012Z,97.33
2018-09-01T00:42:08.996Z,97.71
2018-09-01T00:43:08.984Z,97.42
2018-09-01T00:44:08.962Z,97.80
2018-09-01T00:45:08.944Z,97.71
2018-09-01T00:46:08.940Z,97.71
2018-09-01T00:47:08.911Z,97.90
2018-09-01T00:48:08.893Z,97.52
2018-09-01T00:49:08.889Z,97.90
2018-09-01T00:50:08.862Z,97.33
2018-09-01T00:51:08.850Z,97.42
2018-09-01T00:52:08.834Z,97.42
2018-09-01T00:53:08.810Z,98.09
2018-09-01T00:54:08.792Z,98.38
2018-09-01T00:55:08.774Z,97.80
2018-09-01T00:56:08.760Z,97.90
2018-09-01T00:57:08.740Z,97.80
2018-09-01T00:58:08.748Z,98.47
2018-09-01T00:59:08.712Z,97.61
2018-09-01T01:00:08.700Z,97.42
2018-09-01T01:01:08.673Z,97.99
2018-09-01T01:02:08.658Z,97.71
2018-09-01T01:03:08.662Z,97.71
2018-09-01T01:04:08.628Z,98.28
2018-09-01T01:05:08.604Z,98.38
2018-09-01T01:06:08.594Z,98.38
2018-09-01T01:07:08.568Z,98.28
2018-09-01T01:08:08.554Z,97.94
2018-09-01T01:09:08.533Z,98.04
2018-09-01T01:10:08.519Z,98.33
2018-09-01T01:11:08.499Z,99.09
2018-09-01T01:12:08.486Z,98.61
2018-09-01T01:13:08.467Z,99.19
2018-09-01T01:14:08.450Z,99.48
2018-09-01T01:15:08.428Z,99.57
2018-09-01T01:16:08.409Z,99.09
2018-09-01T01:17:08.393Z,99.95
2018-09-01T01:18:08.381Z,99.95
2018-09-01T01:19:08.368Z,99.99
2018-09-01T01:20:08.342Z,99.99
2018-09-01T01:21:08.355Z,99.99
2018-09-01T01:22:08.320Z,99.99
2018-09-01T01:23:08.293Z,99.99
2018-09-01T01:24:08.276Z,99.99
2018-09-01T01:25:08.258Z,99.99
2018-09-01T01:26:08.238Z,99.99
2018-09-01T01:27:08.230Z,99.99
2018-09-01T01:28:08.209Z,99.99
2018-09-01T01:29:08.188Z,99.99
2018-09-01T01:30:08.168Z,99.99
2018-09-01T01:31:08.150Z,99.99
2018-09-01T01:32:08.131Z,99.99
2018-09-01T01:33:08.117Z,99.99
2018-09-01T01:34:08.100Z,99.99
2018-09-01T01:35:08.081Z,99.99
2018-09-01T01:36:08.065Z,99.99
2018-09-01T01:37:08.046Z,99.99
2018-09-01T01:38:08.028Z,99.99
2018-09-01T01:39:08.012Z,99.99
2018-09-01T01:40:07.996Z,99.99
2018-09-01T01:41:07.974Z,99.99
2018-09-01T01:42:07.957Z,99.99
2018-09-01T01:43:07.939Z,99.99
2018-09-01T01:44:07.925Z,99.99
2018-09-01T01:45:07.906Z,99.99
2018-09-01T01:46:07.886Z,99.99
2018-09-01T01:47:07.873Z,99.99
2018-09-01T01:48:07.859Z,99.99
2018-09-01T01:49:07.836Z,99.99
2018-09-01T01:50:07.824Z,99.99
2018-09-01T01:51:07.802Z,99.99
2018-09-01T01:52:07.783Z,99.99
2018-09-01T01:53:07.789Z,99.99
2018-09-01T01:54:07.746Z,99.99
2018-09-01T01:55:07.740Z,99.99
2018-09-01T01:56:07.711Z,99.99
2018-09-01T01:57:07.694Z,99.99
2018-09-01T01:58:07.674Z,99.99
2018-09-01T01:59:07.658Z,99.99
2018-09-01T02:00:07.639Z,99.99
2018-09-01T02:01:07.627Z,99.99
2018-09-01T02:02:07.613Z,99.99
2018-09-01T02:03:07.586Z,99.99
2018-09-01T02:04:07.575Z,99.99
2018-09-01T02:05:07.556Z,99.99
2018-09-01T02:06:07.533Z,99.99
2018-09-01T02:07:07.518Z,99.99
2018-09-01T02:08:07.498Z,99.99
2018-09-01T02:09:07.486Z,99.99
2018-09-01T02:10:07.465Z,99.99
2018-09-01T02:11:07.570Z,99.99
2018-09-01T02:12:07.427Z,99.99
2018-09-01T02:13:07.419Z,99.99
2018-09-01T02:14:07.497Z,99.99
2018-09-01T02:15:07.376Z,99.99
2018-09-01T02:16:07.364Z,99.99
2018-09-01T02:17:07.338Z,99.99
2018-09-01T02:18:07.328Z,99.99
2018-09-01T02:19:07.303Z,99.99
2018-09-01T02:20:07.284Z,99.99
2018-09-01T02:21:07.267Z,99.99
2018-09-01T02:22:07.248Z,99.99
2018-09-01T02:23:07.228Z,99.99
2018-09-01T02:24:07.210Z,99.99
2018-09-01T02:25:07.193Z,99.99
2018-09-01T02:26:07.183Z,99.99
2018-09-01T02:27:07.157Z,99.99
2018-09-01T02:28:07.143Z,99.99
2018-09-01T02:29:07.120Z,99.99
2018-09-01T02:30:07.103Z,99.99
2018-09-01T02:31:07.085Z,99.99
2018-09-01T02:32:07.071Z,99.99
2018-09-01T02:33:07.094Z,99.99
2018-09-01T02:34:07.041Z,99.99
2018-09-01T02:35:07.021Z,99.99
2018-09-01T02:36:07.001Z,99.99
2018-09-01T02:37:06.977Z,99.99
2018-09-01T02:38:06.960Z,99.99
2018-09-01T02:39:06.950Z,99.99
2018-09-01T02:40:06.924Z,99.99
2018-09-01T02:41:06.906Z,99.99
2018-09-01T02:42:06.888Z,99.99
2018-09-01T02:43:06.881Z,99.99
2018-09-01T02:44:06.850Z,99.99
2018-09-01T02:45:06.831Z,99.99
2018-09-01T02:46:06.814Z,99.99
2018-09-01T02:47:06.806Z,99.99
2018-09-01T02:48:06.790Z,99.99
2018-09-01T02:49:06.761Z,99.99
2018-09-01T02:50:06.743Z,99.99
2018-09-01T02:51:06.725Z,99.99
2018-09-01T02:52:06.710Z,99.99
2018-09-01T02:53:06.689Z,99.99
2018-09-01T02:54:06.668Z,99.99
2018-09-01T02:55:06.652Z,99.99
2018-09-01T02:56:06.635Z,99.99
2018-09-01T02:57:06.619Z,99.99
2018-09-01T02:58:06.599Z,99.99
2018-09-01T02:59:06.581Z,99.99
2018-09-01T03:00:06.744Z,99.99
2018-09-01T03:01:06.541Z,99.99
2018-09-01T03:02:06.525Z,99.99
2018-09-01T03:03:06.614Z,99.99
2018-09-01T03:04:06.496Z,99.99
2018-09-01T03:05:06.471Z,99.99
2018-09-01T03:06:06.452Z,99.99
2018-09-01T03:07:06.434Z,99.99
2018-09-01T03:08:06.416Z,99.99
2018-09-01T03:09:06.414Z,99.99
2018-09-01T03:10:06.379Z,99.99
2018-09-01T03:11:06.363Z,99.99
2018-09-01T03:12:06.344Z,99.99
2018-09-01T03:13:06.333Z,99.99
2018-09-01T03:14:06.310Z,99.99
2018-09-01T03:15:06.292Z,99.99
2018-09-01T03:16:06.270Z,99.99
2018-09-01T03:17:06.251Z,99.99
2018-09-01T03:18:06.243Z,99.99
2018-09-01T03:19:06.229Z,99.99
2018-09-01T03:20:06.210Z,99.99
2018-09-01T03:21:06.194Z,99.99
2018-09-01T03:22:06.235Z,99.99
2018-09-01T03:23:06.143Z,99.99
2018-09-01T03:24:06.123Z,99.99
2018-09-01T03:25:06.108Z,99.99
2018-09-01T03:26:06.089Z,99.99
2018-09-01T03:27:06.072Z,99.99
2018-09-01T03:28:06.051Z,99.99
2018-09-01T03:29:06.028Z,99.99
2018-09-01T03:30:06.024Z,99.99
2018-09-01T03:31:05.998Z,99.99
2018-09-01T03:32:05.978Z,99.99
2018-09-01T03:33:05.957Z,99.99
2018-09-01T03:34:05.942Z,99.99
2018-09-01T03:35:05.921Z,99.99
2018-09-01T03:36:05.903Z,99.99
2018-09-01T03:37:05.886Z,99.99
2018-09-01T03:38:05.873Z,99.99
2018-09-01T03:39:05.847Z,99.99
2018-09-01T03:40:05.828Z,99.99
2018-09-01T03:41:05.810Z,99.99
2018-09-01T03:42:05.791Z,99.99
2018-09-01T03:43:05.776Z,99.99
2018-09-01T03:44:05.756Z,99.99
2018-09-01T03:45:05.736Z,99.99
2018-09-01T03:46:05.880Z,99.99
2018-09-01T03:47:05.703Z,99.99
2018-09-01T03:48:05.680Z,99.99
2018-09-01T03:49:05.724Z,99.99
2018-09-01T03:50:05.644Z,99.99
2018-09-01T03:51:05.626Z,99.99
2018-09-01T03:52:05.656Z,99.99
2018-09-01T03:53:05.588Z,99.99
2018-09-01T03:54:05.573Z,99.99
2018-09-01T03:55:05.550Z,99.99
2018-09-01T03:56:05.536Z,99.99
2018-09-01T03:57:05.511Z,99.99
2018-09-01T03:58:05.493Z,99.99
2018-09-01T03:59:05.485Z,99.99
2018-09-01T04:00:05.457Z,99.99
2018-09-01T04:01:05.439Z,99.99
2018-09-01T04:02:05.419Z,99.99
2018-09-01T04:03:05.410Z,99.99
2018-09-01T04:04:05.383Z,99.99
2018-09-01T04:05:05.372Z,99.99
2018-09-01T04:06:05.356Z,99.99
2018-09-01T04:07:05.326Z,99.99
2018-09-01T04:08:05.446Z,99.99
2018-09-01T04:09:05.289Z,99.99
2018-09-01T04:10:05.273Z,99.99
2018-09-01T04:11:05.351Z,99.99
2018-09-01T04:12:05.237Z,99.99
2018-09-01T04:13:05.215Z,99.99
2018-09-01T04:14:05.197Z,99.99
2018-09-01T04:15:05.179Z,99.99
2018-09-01T04:16:05.163Z,99.99
2018-09-01T04:17:05.147Z,99.99
2018-09-01T04:18:05.122Z,99.99
2018-09-01T04:19:05.108Z,99.99
2018-09-01T04:20:05.088Z,99.99
2018-09-01T04:21:05.067Z,99.99
2018-09-01T04:22:05.048Z,99.99
2018-09-01T04:23:05.029Z,99.99
2018-09-01T04:24:05.011Z,99.99
2018-09-01T04:25:04.993Z,99.99
2018-09-01T04:26:04.973Z,99.99
2018-09-01T04:27:05.015Z,99.99
2018-09-01T04:28:04.936Z,99.99
2018-09-01T04:29:04.915Z,99.99
2018-09-01T04:30:04.904Z,99.99
2018-09-01T04:31:04.882Z,99.99
2018-09-01T04:32:04.972Z,99.99
2018-09-01T04:33:04.843Z,99.99
2018-09-01T04:34:04.821Z,99.99
2018-09-01T04:35:04.945Z,99.99
2018-09-01T04:36:04.794Z,99.99
2018-09-01T04:37:04.766Z,99.99
2018-09-01T04:38:04.810Z,99.99
2018-09-01T04:39:04.733Z,99.99
2018-09-01T04:40:04.712Z,99.99
2018-09-01T04:41:04.696Z,99.99
2018-09-01T04:42:04.684Z,99.99
2018-09-01T04:43:04.662Z,99.99
2018-09-01T04:44:04.635Z,99.99
2018-09-01T04:45:04.616Z,99.99
2018-09-01T04:46:04.599Z,99.99
2018-09-01T04:47:04.587Z,99.99
2018-09-01T04:48:04.557Z,99.99
2018-09-01T04:49:04.541Z,99.99
2018-09-01T04:50:04.528Z,99.99
2018-09-01T04:51:04.505Z,99.99
2018-09-01T04:52:04.485Z,99.99
2018-09-01T04:53:04.467Z,99.99
2018-09-01T04:54:04.457Z,99.99
2018-09-01T04:55:04.436Z,99.99
2018-09-01T04:56:04.414Z,99.99
2018-09-01T04:57:04.539Z,99.99
2018-09-01T04:58:04.372Z,99.99
2018-09-01T04:59:04.368Z,99.99
2018-09-01T05:00:04.360Z,99.99
2018-09-01T05:01:04.481Z,99.99
2018-09-01T05:02:04.297Z,99.99
2018-09-01T05:03:04.280Z,99.99
2018-09-01T05:04:04.259Z,99.99
2018-09-01T05:05:04.240Z,99.99
2018-09-01T05:06:04.224Z,99.99
2018-09-01T05:07:04.202Z,99.99
2018-09-01T05:08:04.183Z,99.99
2018-09-01T05:09:04.165Z,99.99
2018-09-01T05:10:04.149Z,99.99
2018-09-01T05:11:04.129Z,99.99
2018-09-01T05:12:04.108Z,99.99
2018-09-01T05:13:04.099Z,99.99
2018-09-01T05:14:04.072Z,99.99
2018-09-01T05:15:04.053Z,99.99
2018-09-01T05:16:04.087Z,99.99
2018-09-01T05:17:04.019Z,99.99
2018-09-01T05:18:04.000Z,99.99
2018-09-01T05:19:03.996Z,99.99
2018-09-01T05:20:03.959Z,99.99
2018-09-01T05:21:03.940Z,99.99
2018-09-01T05:22:03.920Z,99.99
2018-09-01T05:23:03.904Z,99.99
2018-09-01T05:24:03.978Z,99.99
2018-09-01T05:25:03.868Z,99.99
2018-09-01T05:26:03.848Z,99.99
2018-09-01T05:27:03.850Z,99.99
2018-09-01T05:28:03.813Z,99.99
2018-09-01T05:29:03.793Z,99.99
2018-09-01T05:30:03.780Z,99.99
2018-09-01T05:31:03.758Z,99.99
2018-09-01T05:32:03.737Z,99.99
2018-09-01T05:33:03.713Z,99.99
2018-09-01T05:34:03.700Z,99.99
2018-09-01T05:35:03.681Z,99.99
2018-09-01T05:36:03.663Z,99.99
2018-09-01T05:37:03.641Z,99.99
2018-09-01T05:38:03.625Z,99.99
2018-09-01T05:39:03.605Z,99.99
2018-09-01T05:40:03.586Z,99.99
2018-09-01T05:41:03.573Z,99.99
2018-09-01T05:42:03.549Z,99.99
2018-09-01T05:43:03.621Z,99.99
2018-09-01T05:44:03.513Z,99.99
2018-09-01T05:45:03.504Z,99.99
2018-09-01T05:46:03.556Z,99.99
2018-09-01T05:47:03.458Z,99.99
2018-09-01T05:48:03.439Z,99.99
2018-09-01T05:49:03.469Z,99.99
2018-09-01T05:50:03.400Z,99.99
2018-09-01T05:51:03.384Z,99.99
2018-09-01T05:52:03.365Z,99.99
2018-09-01T05:53:03.348Z,99.99
2018-09-01T05:54:03.330Z,99.99
2018-09-01T05:55:03.321Z,99.99
2018-09-01T05:56:03.289Z,99.99
2018-09-01T05:57:03.274Z,99.99
2018-09-01T05:58:03.252Z,99.99
2018-09-01T05:59:03.235Z,99.99
2018-09-01T06:00:03.231Z,99.99
2018-09-01T06:01:03.203Z,99.99
2018-09-01T06:02:03.227Z,99.33
2018-09-01T06:03:03.171Z,99.09
2018-09-01T06:04:03.150Z,98.13
2018-09-01T06:05:03.202Z,97.80
2018-09-01T06:06:03.184Z,96.75
2018-09-01T06:07:03.094Z,95.98
2018-09-01T06:08:03.077Z,96.47
2018-09-01T06:09:03.059Z,95.70
2018-09-01T06:10:03.044Z,94.84
2018-09-01T06:11:03.026Z,94.74
2018-09-01T06:12:03.012Z,94.41
2018-09-01T06:13:02.991Z,94.55
2018-09-01T06:14:02.984Z,94.17
2018-09-01T06:15:02.962Z,94.02
2018-09-01T06:16:03.046Z,93.55
2018-09-01T06:17:02.927Z,94.02
2018-09-01T06:18:02.965Z,93.98
2018-09-01T06:19:02.923Z,93.45
2018-09-01T06:20:02.877Z,93.88
2018-09-01T06:21:02.863Z,94.07
2018-09-01T06:22:02.845Z,94.74
2018-09-01T06:23:02.832Z,95.70
2018-09-01T06:24:02.927Z,95.51
2018-09-01T06:25:02.802Z,95.61
2018-09-01T06:26:02.782Z,95.70
2018-09-01T06:27:02.769Z,94.65
2018-09-01T06:28:02.748Z,94.74
2018-09-01T06:29:02.906Z,94.93
2018-09-01T06:30:02.734Z,94.74
2018-09-01T06:31:02.721Z,94.74
2018-09-01T06:32:02.746Z,94.60
2018-09-01T06:33:02.822Z,94.12
2018-09-01T06:34:02.655Z,92.97
2018-09-01T06:35:02.697Z,92.88
2018-09-01T06:36:02.631Z,92.40
2018-09-01T06:37:02.606Z,92.30
2018-09-01T06:38:02.599Z,92.21
2018-09-01T06:39:02.574Z,92.21
2018-09-01T06:40:02.561Z,93.26
2018-09-01T06:41:02.548Z,92.97
2018-09-01T06:42:02.526Z,93.55
2018-09-01T06:43:02.595Z,94.02
2018-09-01T06:44:02.494Z,94.02
2018-09-01T06:45:02.487Z,94.41
2018-09-01T06:46:02.461Z,94.93
2018-09-01T06:47:02.457Z,94.89
2018-09-01T06:48:02.630Z,94.70
2018-09-01T06:49:02.413Z,94.50
2018-09-01T06:50:02.405Z,94.79
2018-09-01T06:51:02.409Z,94.60
2018-09-01T06:52:02.367Z,93.84
2018-09-01T06:53:02.361Z,94.60
2018-09-01T06:54:02.332Z,93.93
2018-09-01T06:55:02.326Z,94.12
2018-09-01T06:56:02.305Z,93.84
2018-09-01T06:57:02.291Z,94.21
2018-09-01T06:58:02.274Z,93.84
2018-09-01T06:59:02.260Z,93.79
2018-09-01T07:00:02.241Z,93.64
2018-09-01T07:01:02.219Z,94.21
2018-09-01T07:02:02.202Z,94.21
2018-09-01T07:03:02.185Z,94.70
2018-09-01T07:04:02.168Z,94.12
2018-09-01T07:05:02.152Z,94.60
2018-09-01T07:06:02.136Z,94.70
2018-09-01T07:07:02.119Z,94.21
2018-09-01T07:08:02.102Z,93.98
2018-09-01T07:09:02.090Z,93.88
2018-09-01T07:10:02.073Z,93.79
2018-09-01T07:11:02.052Z,93.50
2018-09-01T07:12:02.041Z,93.30
2018-09-01T07:13:02.023Z,93.12
2018-09-01T07:14:02.003Z,93.30
2018-09-01T07:15:02.132Z,92.49
2018-09-01T07:16:01.972Z,91.72
2018-09-01T07:17:01.954Z,91.72
2018-09-01T07:18:01.942Z,91.25
2018-09-01T07:19:01.922Z,90.96
2018-09-01T07:20:01.916Z,90.62
2018-09-01T07:21:01.915Z,89.37
2018-09-01T07:22:01.893Z,88.42
2018-09-01T07:23:01.853Z,88.23
2018-09-01T07:24:01.839Z,87.74
2018-09-01T07:25:01.826Z,86.88
2018-09-01T07:26:01.807Z,87.31
2018-09-01T07:27:01.787Z,86.83
2018-09-01T07:28:01.773Z,85.88
2018-09-01T07:29:01.754Z,85.97
2018-09-01T07:30:01.751Z,85.58
2018-09-01T07:31:02.004Z,85.97
2018-09-01T07:32:01.721Z,86.54
2018-09-01T07:33:01.701Z,86.35
2018-09-01T07:34:01.704Z,85.68
2018-09-01T07:35:01.658Z,85.49
2018-09-01T07:36:01.639Z,85.78
2018-09-01T07:37:01.677Z,85.44
2018-09-01T07:38:01.611Z,85.34
2018-09-01T07:39:01.592Z,85.34
2018-09-01T07:40:01.576Z,84.09
2018-09-01T07:41:01.556Z,83.71
2018-09-01T07:42:01.546Z,83.33
2018-09-01T07:43:01.535Z,83.81
2018-09-01T07:44:01.512Z,83.71
2018-09-01T07:45:01.496Z,83.91
2018-09-01T07:46:01.487Z,83.52
2018-09-01T07:47:01.469Z,83.61
2018-09-01T07:48:01.446Z,83.61
2018-09-01T07:49:01.440Z,83.56
2018-09-01T07:50:01.461Z,83.18
2018-09-01T07:51:01.401Z,82.79
2018-09-01T07:52:01.407Z,82.98
2018-09-01T07:53:01.428Z,82.12
2018-09-01T07:54:01.355Z,82.03
2018-09-01T07:55:01.342Z,81.49
2018-09-01T07:56:01.431Z,81.40
2018-09-01T07:57:01.314Z,81.20
2018-09-01T07:58:01.295Z,80.63
2018-09-01T07:59:01.284Z,80.53
2018-09-01T08:00:01.275Z,79.86
2018-09-01T08:01:01.313Z,79.86
2018-09-01T08:02:01.238Z,79.86
2018-09-01T08:03:01.225Z,80.24
2018-09-01T08:04:01.221Z,79.86
2018-09-01T08:05:01.202Z,80.73
2018-09-01T08:06:01.175Z,79.86
2018-09-01T08:07:01.166Z,80.34
2018-09-01T08:08:01.145Z,80.91
2018-09-01T08:09:01.132Z,80.05
2018-09-01T08:10:01.117Z,79.86
2018-09-01T08:11:01.100Z,80.05
2018-09-01T08:12:01.086Z,79.57
2018-09-01T08:13:01.074Z,79.38
2018-09-01T08:14:01.221Z,79.22
2018-09-01T08:15:01.038Z,79.47
2018-09-01T08:16:01.027Z,79.19
2018-09-01T08:17:01.013Z,79.03
2018-09-01T08:18:01.006Z,78.32
2018-09-01T08:19:00.995Z,78.52
2018-09-01T08:20:00.965Z,78.80
2018-09-01T08:21:00.957Z,78.84
2018-09-01T08:22:00.935Z,78.84
2018-09-01T08:23:00.922Z,78.45
2018-09-01T08:24:00.909Z,78.36
2018-09-01T08:25:00.908Z,77.78
2018-09-01T08:26:00.937Z,77.46
2018-09-01T08:27:00.865Z,77.94
2018-09-01T08:28:00.847Z,77.94
2018-09-01T08:29:00.835Z,77.08
2018-09-01T08:30:00.817Z,77.40
2018-09-01T08:31:00.804Z,77.11
2018-09-01T08:32:00.793Z,77.40
2018-09-01T08:33:00.774Z,76.64
2018-09-01T08:34:00.863Z,76.92
2018-09-01T08:35:00.748Z,77.21
2018-09-01T08:36:00.852Z,76.73
2018-09-01T08:37:00.715Z,76.06
2018-09-01T08:38:00.701Z,76.54
2018-09-01T08:39:00.715Z,75.48
2018-09-01T08:40:00.701Z,75.20
2018-09-01T08:41:00.667Z,74.75
2018-09-01T08:42:00.645Z,75.13
2018-09-01T08:43:00.633Z,75.23
2018-09-01T08:44:00.613Z,75.23
2018-09-01T08:45:00.606Z,75.38
2018-09-01T08:46:00.583Z,75.29
2018-09-01T08:47:00.571Z,75.77
2018-09-01T08:48:00.554Z,75.77
2018-09-01T08:49:00.540Z,76.00
2018-09-01T08:50:00.526Z,75.23
2018-09-01T08:51:00.525Z,74.21
2018-09-01T08:52:00.508Z,74.21
2018-09-01T08:53:00.484Z,72.58
2018-09-01T08:54:00.478Z,71.14
2018-09-01T08:55:00.454Z,70.68
2018-09-01T08:56:00.440Z,70.68
2018-09-01T08:57:00.425Z,69.98
2018-09-01T08:58:00.415Z,70.17
2018-09-01T08:59:00.395Z,68.54
2018-09-01T09:00:00.507Z,68.92
2018-09-01T09:01:00.368Z,69.79
2018-09-01T09:02:00.352Z,70.27
2018-09-01T09:03:00.397Z,70.07
2018-09-01T09:04:00.326Z,69.92
2018-09-01T09:05:00.309Z,68.96
2018-09-01T09:06:00.298Z,68.60
2018-09-01T09:07:00.281Z,67.55
2018-09-01T09:08:00.275Z,66.91
2018-09-01T09:09:00.251Z,67.07
2018-09-01T09:10:00.247Z,66.62
2018-09-01T09:11:00.222Z,65.88
2018-09-01T09:12:00.219Z,65.30
2018-09-01T09:13:00.198Z,64.28
2018-09-01T09:14:00.181Z,63.98
2018-09-01T09:15:00.178Z,63.50
2018-09-01T09:16:00.167Z,63.31
2018-09-01T09:17:00.149Z,63.31
2018-09-01T09:18:00.137Z,63.95
2018-09-01T09:19:00.245Z,64.63
2018-09-01T09:20:00.105Z,64.47
2018-09-01T09:21:00.104Z,64.76
2018-09-01T09:22:00.116Z,63.79
2018-09-01T09:23:00.066Z,63.50
2018-09-01T09:24:00.064Z,63.60
2018-09-01T09:25:00.063Z,63.70
2018-09-01T09:26:00.059Z,62.09
2018-09-01T09:27:00.019Z,61.71
2018-09-01T09:28:00.009Z,62.18
2018-09-01T09:29:00.234Z,61.13
2018-09-01T09:29:59.986Z,60.03
2018-09-01T09:30:59.979Z,60.13
2018-09-01T09:31:59.961Z,60.32
2018-09-01T09:32:59.956Z,62.06
2018-09-01T09:33:59.944Z,61.87
2018-09-01T09:35:00.077Z,61.38
2018-09-01T09:35:59.918Z,61.00
2018-09-01T09:36:59.917Z,59.97
2018-09-01T09:37:59.900Z,60.19
2018-09-01T09:38:59.896Z,59.52
2018-09-01T09:40:00.144Z,58.94
2018-09-01T09:40:59.891Z,57.97
2018-09-01T09:42:00.007Z,58.87
2018-09-01T09:42:59.929Z,57.71
2018-09-01T09:43:59.841Z,56.96
2018-09-01T09:44:59.821Z,55.55
2018-09-01T09:45:59.808Z,54.63
2018-09-01T09:46:59.800Z,52.99
2018-09-01T09:47:59.803Z,54.49
2018-09-01T09:48:59.780Z,55.71
2018-09-01T09:49:59.768Z,57.04
2018-09-01T09:50:59.764Z,57.42
2018-09-01T09:51:59.747Z,55.67
2018-09-01T09:52:59.746Z,54.08
2018-09-01T09:53:59.729Z,52.20
2018-09-01T09:54:59.720Z,52.80
2018-09-01T09:55:59.830Z,55.38
2018-09-01T09:56:59.703Z,54.71
2018-09-01T09:57:59.693Z,55.16
2018-09-01T09:58:59.749Z,55.74
2018-09-01T09:59:59.678Z,53.89
2018-09-01T10:00:59.784Z,52.24
2018-09-01T10:01:59.675Z,52.95
2018-09-01T10:02:59.662Z,50.65
2018-09-01T10:03:59.655Z,50.55
2018-09-01T10:04:59.637Z,50.26
2018-09-01T10:05:59.626Z,49.63
2018-09-01T10:06:59.623Z,48.49
2018-09-01T10:07:59.628Z,47.13
2018-09-01T10:08:59.608Z,47.84
2018-09-01T10:09:59.605Z,50.21
2018-09-01T10:10:59.625Z,52.48
2018-09-01T10:11:59.667Z,53.06
2018-09-01T10:12:59.582Z,54.10
2018-09-01T10:13:59.584Z,53.33
2018-09-01T10:14:59.571Z,54.55
2018-09-01T10:15:59.635Z,55.68
2018-09-01T10:16:59.556Z,57.01
2018-09-01T10:17:59.548Z,57.87
2018-09-01T10:18:59.553Z,57.39
2018-09-01T10:19:59.549Z,57.39
2018-09-01T10:20:59.528Z,56.62
2018-09-01T10:21:59.523Z,57.46
2018-09-01T10:22:59.519Z,57.52
2018-09-01T10:23:59.511Z,55.55
2018-09-01T10:24:59.504Z,54.15
2018-09-01T10:25:59.487Z,51.30
2018-09-01T10:26:59.520Z,49.75
2018-09-01T10:27:59.485Z,49.68
2018-09-01T10:28:59.486Z,48.66
2018-09-01T10:29:59.457Z,46.84
2018-09-01T10:30:59.449Z,45.41
2018-09-01T10:31:59.460Z,44.73
2018-09-01T10:32:59.612Z,44.73
2018-09-01T10:33:59.440Z,46.02
2018-09-01T10:34:59.431Z,48.37
2018-09-01T10:36:00.439Z,50.70
2018-09-01T10:36:59.417Z,50.65
2018-09-01T10:37:59.418Z,50.31
2018-09-01T10:38:59.404Z,52.17
2018-09-01T10:39:59.395Z,54.55
2018-09-01T10:40:59.400Z,55.78
2018-09-01T10:41:59.387Z,56.16
2018-09-01T10:42:59.376Z,56.65
2018-09-01T10:43:59.577Z,57.59
2018-09-01T10:44:59.369Z,57.59
2018-09-01T10:45:59.398Z,58.14
2018-09-01T10:46:59.344Z,58.14
2018-09-01T10:47:59.341Z,57.94
2018-09-01T10:48:59.335Z,57.46
2018-09-01T10:49:59.321Z,58.72
2018-09-01T10:50:59.312Z,58.91
2018-09-01T10:51:59.309Z,59.10
2018-09-01T10:52:59.299Z,59.39
2018-09-01T10:53:59.286Z,57.05
2018-09-01T10:54:59.282Z,57.53
2018-09-01T10:55:59.269Z,57.31
2018-09-01T10:56:59.269Z,58.05
2018-09-01T10:57:59.260Z,59.01
2018-09-01T10:58:59.363Z,59.11
2018-09-01T10:59:59.253Z,59.78
2018-09-01T11:00:59.239Z,60.00
2018-09-01T11:01:59.219Z,60.00
2018-09-01T11:02:59.240Z,60.00
2018-09-01T11:03:59.188Z,58.36
2018-09-01T11:04:59.493Z,55.90
2018-09-01T11:05:59.177Z,53.16
2018-09-01T11:06:59.161Z,51.37
2018-09-01T11:07:59.146Z,50.70
2018-09-01T11:08:59.136Z,50.21
2018-09-01T11:09:59.139Z,49.77
2018-09-01T11:10:59.118Z,48.06
2018-09-01T11:11:59.115Z,47.47
2018-09-01T11:12:59.096Z,46.92
2018-09-01T11:13:59.087Z,46.43
2018-09-01T11:14:59.098Z,45.97
2018-09-01T11:15:59.074Z,44.90
2018-09-01T11:16:59.081Z,44.71
2018-09-01T11:17:59.097Z,44.30
2018-09-01T11:18:59.055Z,45.81
2018-09-01T11:19:59.052Z,47.62
2018-09-01T11:20:59.119Z,47.64
2018-09-01T11:21:59.035Z,47.72
2018-09-01T11:22:59.029Z,49.24
2018-09-01T11:23:59.018Z,49.70
2018-09-01T11:24:59.018Z,49.49
2018-09-01T11:25:59.006Z,49.05
2018-09-01T11:26:59.017Z,48.16
2018-09-01T11:27:59.087Z,48.71
2018-09-01T11:28:58.987Z,49.10
2018-09-01T11:29:58.977Z,49.58
2018-09-01T11:30:58.971Z,48.86
2018-09-01T11:31:58.984Z,47.24
2018-09-01T11:32:58.958Z,47.69
2018-09-01T11:33:58.953Z,49.32
2018-09-01T11:34:58.944Z,49.90
2018-09-01T11:35:58.936Z,49.39
2018-09-01T11:36:58.926Z,49.58
2018-09-01T11:37:58.926Z,50.33
2018-09-01T11:38:58.910Z,51.29
2018-09-01T11:39:58.910Z,52.01
2018-09-01T11:40:58.895Z,53.37
2018-09-01T11:41:58.976Z,53.85
2018-09-01T11:42:59.027Z,54.53
2018-09-01T11:43:58.884Z,54.02
2018-09-01T11:44:58.859Z,54.21
2018-09-01T11:45:58.853Z,53.73
2018-09-01T11:46:58.863Z,54.31
2018-09-01T11:47:58.847Z,53.99
2018-09-01T11:48:58.829Z,54.96
2018-09-01T11:49:58.827Z,53.99
2018-09-01T11:50:58.805Z,54.28
2018-09-01T11:51:58.815Z,54.64
2018-09-01T11:52:58.803Z,54.25
2018-09-01T11:53:58.777Z,54.25
2018-09-01T11:54:58.902Z,54.83
2018-09-01T11:55:58.752Z,55.70
2018-09-01T11:56:58.753Z,55.51
2018-09-01T11:57:58.743Z,55.60
2018-09-01T11:58:58.815Z,55.70
2018-09-01T11:59:58.741Z,55.79
2018-09-01T12:00:58.721Z,55.63
2018-09-01T12:01:58.694Z,55.92
2018-09-01T12:02:58.679Z,56.37
2018-09-01T12:03:58.703Z,56.49
2018-09-01T12:04:58.668Z,56.30
2018-09-01T12:05:58.643Z,55.92
2018-09-01T12:06:58.641Z,56.11
2018-09-01T12:07:58.640Z,55.44
2018-09-01T12:08:58.728Z,56.49
2018-09-01T12:09:58.612Z,56.30
2018-09-01T12:10:58.610Z,56.21
2018-09-01T12:11:58.599Z,56.95
2018-09-01T12:12:58.570Z,57.53
2018-09-01T12:13:58.606Z,58.11
2018-09-01T12:14:58.548Z,58.01
2018-09-01T12:15:58.559Z,58.30
2018-09-01T12:16:58.533Z,57.82
2018-09-01T12:17:58.515Z,57.53
2018-09-01T12:18:58.578Z,56.66
2018-09-01T12:19:58.483Z,56.47
2018-09-01T12:20:58.482Z,57.34
2018-09-01T12:21:58.505Z,57.43
2018-09-01T12:22:58.451Z,56.49
2018-09-01T12:23:58.437Z,55.79
2018-09-01T12:24:58.433Z,56.27
2018-09-01T12:25:58.415Z,56.47
2018-09-01T12:26:58.401Z,56.47
2018-09-01T12:27:58.401Z,56.57
2018-09-01T12:28:58.377Z,57.05
2018-09-01T12:29:58.388Z,56.30
2018-09-01T12:30:58.364Z,56.21
2018-09-01T12:31:58.340Z,56.49
2018-09-01T12:32:58.331Z,56.40
2018-09-01T12:33:58.334Z,56.72
2018-09-01T12:34:58.388Z,56.62
2018-09-01T12:35:58.294Z,55.68
2018-09-01T12:36:58.300Z,54.53
2018-09-01T12:37:58.326Z,54.27
2018-09-01T12:38:58.264Z,51.85
2018-09-01T12:39:58.245Z,52.04
2018-09-01T12:40:58.231Z,52.14
2018-09-01T12:41:58.261Z,52.62
2018-09-01T12:42:58.207Z,52.89
2018-09-01T12:43:58.200Z,53.27
2018-09-01T12:44:58.185Z,53.20
2018-09-01T12:45:58.175Z,53.01
2018-09-01T12:46:58.171Z,53.11
2018-09-01T12:47:58.149Z,53.59
2018-09-01T12:48:58.140Z,53.95
2018-09-01T12:49:58.127Z,54.55
2018-09-01T12:50:58.217Z,54.24
2018-09-01T12:51:58.105Z,54.05